Long Lake, Indiana
Current Conditions -  °F | °C
As of 4:55 AM on Saturday 20 Dec 2014 (Local Time) from KANQ Reporting Station
Overcast Overcast  
Wind Chill: -5°   Ceiling: 2400
Heat Index: -5°   Visibility: 4mi
Dew Point: -6°   Wind: 0mph
Humidity: 93%   Direction: NA
Pressure: 30.26"   Gusts: NA
Location:  41.7284°N, 84.9169°W
Report Text: KANQ 200955Z AUTO 00000KT 4SM OVC024 M05/M06 A3026 RMK
Loading
Personal Weather Stations






























Interactive Weather Map New forecast layout! Learn more

10-Day Weather Forecast

Advertisements
Track Severe Weather on mobile